sensor_id;sensor_type;location;lat;lon;timestamp;P1;durP1;ratioP1;P2;durP2;ratioP2
36359;SDS011;22388;52.432;20.662;2023-03-04T00:01:12;43.83;;;26.45;;
36359;SDS011;22388;52.432;20.662;2023-03-04T00:03:37;44.30;;;25.08;;
36359;SDS011;22388;52.432;20.662;2023-03-04T00:06:03;46.80;;;24.65;;
36359;SDS011;22388;52.432;20.662;2023-03-04T00:08:29;42.33;;;24.10;;
36359;SDS011;22388;52.432;20.662;2023-03-04T00:10:55;45.15;;;24.98;;
36359;SDS011;22388;52.432;20.662;2023-03-04T00:13:21;48.88;;;24.90;;
36359;SDS011;22388;52.432;20.662;2023-03-04T00:15:47;48.80;;;26.42;;
36359;SDS011;22388;52.432;20.662;2023-03-04T00:18:12;50.45;;;26.27;;
36359;SDS011;22388;52.432;20.662;2023-03-04T00:20:38;46.95;;;24.27;;
36359;SDS011;22388;52.432;20.662;2023-03-04T00:23:04;49.45;;;25.08;;
36359;SDS011;22388;52.432;20.662;2023-03-04T00:25:29;49.83;;;24.70;;
36359;SDS011;22388;52.432;20.662;2023-03-04T00:27:55;48.60;;;24.48;;
36359;SDS011;22388;52.432;20.662;2023-03-04T00:30:22;55.67;;;25.75;;
36359;SDS011;22388;52.432;20.662;2023-03-04T00:32:49;48.05;;;24.25;;
36359;SDS011;22388;52.432;20.662;2023-03-04T00:35:15;54.80;;;25.38;;
36359;SDS011;22388;52.432;20.662;2023-03-04T00:37:41;54.17;;;26.98;;
36359;SDS011;22388;52.432;20.662;2023-03-04T00:40:07;59.53;;;27.92;;
36359;SDS011;22388;52.432;20.662;2023-03-04T00:42:33;51.47;;;26.25;;
36359;SDS011;22388;52.432;20.662;2023-03-04T00:44:58;54.75;;;27.17;;
36359;SDS011;22388;52.432;20.662;2023-03-04T00:47:24;58.78;;;28.05;;
36359;SDS011;22388;52.432;20.662;2023-03-04T00:49:49;54.67;;;27.13;;
36359;SDS011;22388;52.432;20.662;2023-03-04T00:52:15;59.08;;;28.17;;
36359;SDS011;22388;52.432;20.662;2023-03-04T00:54:40;60.10;;;27.55;;
36359;SDS011;22388;52.432;20.662;2023-03-04T00:57:06;61.22;;;28.85;;
36359;SDS011;22388;52.432;20.662;2023-03-04T00:59:31;57.70;;;27.98;;
36359;SDS011;22388;52.432;20.662;2023-03-04T01:01:57;60.00;;;28.10;;
36359;SDS011;22388;52.432;20.662;2023-03-04T01:04:23;57.63;;;27.65;;
36359;SDS011;22388;52.432;20.662;2023-03-04T01:06:48;62.78;;;30.80;;
36359;SDS011;22388;52.432;20.662;2023-03-04T01:09:14;59.30;;;28.55;;
36359;SDS011;22388;52.432;20.662;2023-03-04T01:11:39;62.25;;;27.70;;
36359;SDS011;22388;52.432;20.662;2023-03-04T01:14:05;63.88;;;28.25;;
36359;SDS011;22388;52.432;20.662;2023-03-04T01:16:30;56.92;;;28.58;;
36359;SDS011;22388;52.432;20.662;2023-03-04T01:18:56;56.58;;;28.38;;
36359;SDS011;22388;52.432;20.662;2023-03-04T01:21:22;59.97;;;27.55;;
36359;SDS011;22388;52.432;20.662;2023-03-04T01:23:47;58.95;;;28.88;;
36359;SDS011;22388;52.432;20.662;2023-03-04T01:26:13;57.28;;;28.75;;
36359;SDS011;22388;52.432;20.662;2023-03-04T01:28:38;58.60;;;27.92;;
36359;SDS011;22388;52.432;20.662;2023-03-04T01:31:04;54.83;;;27.02;;
36359;SDS011;22388;52.432;20.662;2023-03-04T01:33:30;56.50;;;27.45;;
36359;SDS011;22388;52.432;20.662;2023-03-04T01:35:56;55.03;;;26.52;;
36359;SDS011;22388;52.432;20.662;2023-03-04T01:38:22;53.25;;;26.48;;
36359;SDS011;22388;52.432;20.662;2023-03-04T01:40:48;49.45;;;25.67;;
36359;SDS011;22388;52.432;20.662;2023-03-04T01:43:24;52.95;;;26.40;;
36359;SDS011;22388;52.432;20.662;2023-03-04T01:45:52;52.00;;;25.58;;
36359;SDS011;22388;52.432;20.662;2023-03-04T01:48:20;45.33;;;24.08;;
36359;SDS011;22388;52.432;20.662;2023-03-04T01:50:49;50.60;;;24.58;;
36359;SDS011;22388;52.432;20.662;2023-03-04T01:53:24;50.60;;;25.77;;
36359;SDS011;22388;52.432;20.662;2023-03-04T01:55:52;48.28;;;24.77;;
36359;SDS011;22388;52.432;20.662;2023-03-04T01:58:19;50.08;;;25.48;;
36359;SDS011;22388;52.432;20.662;2023-03-04T02:00:45;50.67;;;25.88;;
36359;SDS011;22388;52.432;20.662;2023-03-04T02:03:12;54.20;;;26.02;;
36359;SDS011;22388;52.432;20.662;2023-03-04T02:05:41;50.80;;;26.70;;
36359;SDS011;22388;52.432;20.662;2023-03-04T02:08:08;50.47;;;25.55;;
36359;SDS011;22388;52.432;20.662;2023-03-04T02:10:34;52.10;;;25.58;;
36359;SDS011;22388;52.432;20.662;2023-03-04T02:13:00;49.63;;;24.50;;
36359;SDS011;22388;52.432;20.662;2023-03-04T02:15:28;54.85;;;26.48;;
36359;SDS011;22388;52.432;20.662;2023-03-04T02:17:54;56.08;;;26.40;;
36359;SDS011;22388;52.432;20.662;2023-03-04T02:20:22;51.38;;;26.05;;
36359;SDS011;22388;52.432;20.662;2023-03-04T02:22:58;56.58;;;27.45;;
36359;SDS011;22388;52.432;20.662;2023-03-04T02:25:37;52.97;;;25.02;;
36359;SDS011;22388;52.432;20.662;2023-03-04T02:28:07;54.20;;;25.80;;
36359;SDS011;22388;52.432;20.662;2023-03-04T02:30:33;55.47;;;27.05;;
36359;SDS011;22388;52.432;20.662;2023-03-04T02:32:59;55.80;;;26.70;;
36359;SDS011;22388;52.432;20.662;2023-03-04T02:35:25;53.70;;;26.77;;
36359;SDS011;22388;52.432;20.662;2023-03-04T02:37:50;62.25;;;28.25;;
36359;SDS011;22388;52.432;20.662;2023-03-04T02:40:20;55.88;;;27.42;;
36359;SDS011;22388;52.432;20.662;2023-03-04T02:42:49;51.05;;;26.75;;
36359;SDS011;22388;52.432;20.662;2023-03-04T02:48:04;56.60;;;26.08;;
36359;SDS011;22388;52.432;20.662;2023-03-04T02:50:30;58.60;;;27.95;;
36359;SDS011;22388;52.432;20.662;2023-03-04T02:52:58;58.53;;;28.48;;
36359;SDS011;22388;52.432;20.662;2023-03-04T02:55:24;52.40;;;27.70;;
36359;SDS011;22388;52.432;20.662;2023-03-04T02:57:50;56.78;;;28.48;;
36359;SDS011;22388;52.432;20.662;2023-03-04T03:00:16;60.33;;;28.05;;
36359;SDS011;22388;52.432;20.662;2023-03-04T03:02:41;60.95;;;28.52;;
36359;SDS011;22388;52.432;20.662;2023-03-04T03:05:07;62.05;;;29.63;;
36359;SDS011;22388;52.432;20.662;2023-03-04T03:07:33;59.05;;;30.27;;
36359;SDS011;22388;52.432;20.662;2023-03-04T03:09:59;60.53;;;29.13;;
36359;SDS011;22388;52.432;20.662;2023-03-04T03:12:25;53.97;;;27.63;;
36359;SDS011;22388;52.432;20.662;2023-03-04T03:14:51;61.97;;;30.13;;
36359;SDS011;22388;52.432;20.662;2023-03-04T03:17:17;61.72;;;30.25;;
36359;SDS011;22388;52.432;20.662;2023-03-04T03:19:42;59.50;;;31.05;;
36359;SDS011;22388;52.432;20.662;2023-03-04T03:22:08;59.92;;;29.80;;
36359;SDS011;22388;52.432;20.662;2023-03-04T03:24:33;57.70;;;30.05;;
36359;SDS011;22388;52.432;20.662;2023-03-04T03:26:59;61.15;;;31.02;;
36359;SDS011;22388;52.432;20.662;2023-03-04T03:29:25;60.97;;;28.38;;
36359;SDS011;22388;52.432;20.662;2023-03-04T03:31:50;57.45;;;28.85;;
36359;SDS011;22388;52.432;20.662;2023-03-04T03:34:16;57.70;;;29.35;;
36359;SDS011;22388;52.432;20.662;2023-03-04T03:36:44;56.75;;;29.35;;
36359;SDS011;22388;52.432;20.662;2023-03-04T03:39:10;58.25;;;29.92;;
36359;SDS011;22388;52.432;20.662;2023-03-04T03:41:35;50.60;;;26.83;;
36359;SDS011;22388;52.432;20.662;2023-03-04T03:44:01;50.40;;;27.55;;
36359;SDS011;22388;52.432;20.662;2023-03-04T03:46:26;48.83;;;26.48;;
36359;SDS011;22388;52.432;20.662;2023-03-04T03:48:52;50.70;;;26.95;;
36359;SDS011;22388;52.432;20.662;2023-03-04T03:51:17;51.65;;;26.88;;
36359;SDS011;22388;52.432;20.662;2023-03-04T03:53:43;49.92;;;26.98;;
36359;SDS011;22388;52.432;20.662;2023-03-04T03:56:08;45.83;;;26.70;;
36359;SDS011;22388;52.432;20.662;2023-03-04T03:58:34;41.78;;;23.27;;
36359;SDS011;22388;52.432;20.662;2023-03-04T04:01:00;47.40;;;25.75;;
36359;SDS011;22388;52.432;20.662;2023-03-04T04:03:25;43.88;;;25.88;;
36359;SDS011;22388;52.432;20.662;2023-03-04T04:05:51;46.92;;;25.77;;
36359;SDS011;22388;52.432;20.662;2023-03-04T04:08:16;51.15;;;24.90;;
36359;SDS011;22388;52.432;20.662;2023-03-04T04:10:42;43.33;;;25.73;;
36359;SDS011;22388;52.432;20.662;2023-03-04T04:13:08;46.03;;;25.63;;
36359;SDS011;22388;52.432;20.662;2023-03-04T04:15:34;41.53;;;24.77;;
36359;SDS011;22388;52.432;20.662;2023-03-04T04:18:01;43.58;;;25.73;;
36359;SDS011;22388;52.432;20.662;2023-03-04T04:20:26;47.08;;;26.08;;
36359;SDS011;22388;52.432;20.662;2023-03-04T04:22:52;44.95;;;25.50;;
36359;SDS011;22388;52.432;20.662;2023-03-04T04:25:18;42.35;;;25.25;;
36359;SDS011;22388;52.432;20.662;2023-03-04T04:27:43;43.95;;;26.58;;
36359;SDS011;22388;52.432;20.662;2023-03-04T04:30:09;44.80;;;24.90;;
36359;SDS011;22388;52.432;20.662;2023-03-04T04:32:35;45.78;;;26.63;;
36359;SDS011;22388;52.432;20.662;2023-03-04T04:35:00;47.25;;;26.65;;
36359;SDS011;22388;52.432;20.662;2023-03-04T04:37:26;46.15;;;26.48;;
36359;SDS011;22388;52.432;20.662;2023-03-04T04:39:52;41.83;;;24.45;;
36359;SDS011;22388;52.432;20.662;2023-03-04T04:42:19;42.97;;;23.90;;
36359;SDS011;22388;52.432;20.662;2023-03-04T04:44:45;41.17;;;23.55;;
36359;SDS011;22388;52.432;20.662;2023-03-04T04:47:11;41.83;;;23.02;;
36359;SDS011;22388;52.432;20.662;2023-03-04T04:49:37;42.20;;;23.35;;
36359;SDS011;22388;52.432;20.662;2023-03-04T04:52:03;41.53;;;23.10;;
36359;SDS011;22388;52.432;20.662;2023-03-04T04:54:28;40.78;;;23.48;;
36359;SDS011;22388;52.432;20.662;2023-03-04T04:56:54;38.35;;;22.65;;
36359;SDS011;22388;52.432;20.662;2023-03-04T04:59:20;43.00;;;22.05;;
36359;SDS011;22388;52.432;20.662;2023-03-04T05:01:46;40.72;;;22.33;;
36359;SDS011;22388;52.432;20.662;2023-03-04T05:04:11;42.17;;;21.63;;
36359;SDS011;22388;52.432;20.662;2023-03-04T05:06:37;42.50;;;21.98;;
36359;SDS011;22388;52.432;20.662;2023-03-04T05:09:03;39.50;;;22.30;;
36359;SDS011;22388;52.432;20.662;2023-03-04T05:11:29;44.67;;;22.27;;
36359;SDS011;22388;52.432;20.662;2023-03-04T05:13:54;39.78;;;22.48;;
36359;SDS011;22388;52.432;20.662;2023-03-04T05:16:20;41.15;;;20.85;;
36359;SDS011;22388;52.432;20.662;2023-03-04T05:18:46;36.35;;;19.95;;
36359;SDS011;22388;52.432;20.662;2023-03-04T05:21:11;36.97;;;21.70;;
36359;SDS011;22388;52.432;20.662;2023-03-04T05:23:38;41.17;;;21.90;;
36359;SDS011;22388;52.432;20.662;2023-03-04T05:26:05;39.88;;;21.17;;
36359;SDS011;22388;52.432;20.662;2023-03-04T05:28:32;41.78;;;20.90;;
36359;SDS011;22388;52.432;20.662;2023-03-04T05:30:58;37.28;;;20.55;;
36359;SDS011;22388;52.432;20.662;2023-03-04T05:33:24;38.22;;;19.58;;
36359;SDS011;22388;52.432;20.662;2023-03-04T05:35:50;39.85;;;20.40;;
36359;SDS011;22388;52.432;20.662;2023-03-04T05:38:16;38.45;;;19.35;;
36359;SDS011;22388;52.432;20.662;2023-03-04T05:40:43;34.10;;;19.50;;
36359;SDS011;22388;52.432;20.662;2023-03-04T05:43:09;37.25;;;20.02;;
36359;SDS011;22388;52.432;20.662;2023-03-04T05:45:35;40.13;;;20.23;;
36359;SDS011;22388;52.432;20.662;2023-03-04T05:48:01;37.17;;;18.83;;
36359;SDS011;22388;52.432;20.662;2023-03-04T05:50:27;35.47;;;21.05;;
36359;SDS011;22388;52.432;20.662;2023-03-04T05:52:53;35.08;;;19.05;;
36359;SDS011;22388;52.432;20.662;2023-03-04T05:55:18;33.47;;;19.08;;
36359;SDS011;22388;52.432;20.662;2023-03-04T05:57:44;34.28;;;18.25;;
36359;SDS011;22388;52.432;20.662;2023-03-04T06:00:10;38.38;;;18.58;;
36359;SDS011;22388;52.432;20.662;2023-03-04T06:02:37;30.13;;;18.23;;
36359;SDS011;22388;52.432;20.662;2023-03-04T06:05:03;39.60;;;18.15;;
36359;SDS011;22388;52.432;20.662;2023-03-04T06:07:30;36.67;;;19.85;;
36359;SDS011;22388;52.432;20.662;2023-03-04T06:09:55;32.60;;;17.95;;
36359;SDS011;22388;52.432;20.662;2023-03-04T06:12:21;31.80;;;17.85;;
36359;SDS011;22388;52.432;20.662;2023-03-04T06:14:47;33.42;;;18.08;;
36359;SDS011;22388;52.432;20.662;2023-03-04T06:17:13;33.92;;;18.25;;
36359;SDS011;22388;52.432;20.662;2023-03-04T06:19:38;36.97;;;19.02;;
36359;SDS011;22388;52.432;20.662;2023-03-04T06:22:05;32.05;;;17.75;;
36359;SDS011;22388;52.432;20.662;2023-03-04T06:24:31;37.25;;;17.95;;
36359;SDS011;22388;52.432;20.662;2023-03-04T06:26:57;30.30;;;17.67;;
36359;SDS011;22388;52.432;20.662;2023-03-04T06:29:23;35.90;;;18.33;;
36359;SDS011;22388;52.432;20.662;2023-03-04T06:31:48;33.00;;;17.17;;
36359;SDS011;22388;52.432;20.662;2023-03-04T06:34:14;33.63;;;16.73;;
36359;SDS011;22388;52.432;20.662;2023-03-04T06:36:39;31.70;;;16.95;;
36359;SDS011;22388;52.432;20.662;2023-03-04T06:39:05;32.47;;;17.92;;
36359;SDS011;22388;52.432;20.662;2023-03-04T06:41:31;33.85;;;17.98;;
36359;SDS011;22388;52.432;20.662;2023-03-04T06:43:57;32.83;;;18.25;;
36359;SDS011;22388;52.432;20.662;2023-03-04T06:46:23;32.70;;;17.10;;
36359;SDS011;22388;52.432;20.662;2023-03-04T06:48:48;36.95;;;17.42;;
36359;SDS011;22388;52.432;20.662;2023-03-04T06:51:14;30.58;;;17.35;;
36359;SDS011;22388;52.432;20.662;2023-03-04T06:53:40;29.85;;;16.25;;
36359;SDS011;22388;52.432;20.662;2023-03-04T06:56:07;29.40;;;15.88;;
36359;SDS011;22388;52.432;20.662;2023-03-04T06:58:34;32.53;;;17.17;;
36359;SDS011;22388;52.432;20.662;2023-03-04T07:01:21;34.70;;;16.73;;
36359;SDS011;22388;52.432;20.662;2023-03-04T07:03:47;32.55;;;16.92;;
36359;SDS011;22388;52.432;20.662;2023-03-04T07:06:15;30.05;;;15.88;;
36359;SDS011;22388;52.432;20.662;2023-03-04T07:08:42;28.75;;;15.63;;
36359;SDS011;22388;52.432;20.662;2023-03-04T07:11:08;30.02;;;16.23;;
36359;SDS011;22388;52.432;20.662;2023-03-04T07:13:33;30.95;;;15.57;;
36359;SDS011;22388;52.432;20.662;2023-03-04T07:16:02;32.53;;;15.88;;
36359;SDS011;22388;52.432;20.662;2023-03-04T07:18:29;34.63;;;17.35;;
36359;SDS011;22388;52.432;20.662;2023-03-04T07:20:55;32.03;;;16.02;;
36359;SDS011;22388;52.432;20.662;2023-03-04T07:23:20;40.28;;;17.33;;
36359;SDS011;22388;52.432;20.662;2023-03-04T07:25:47;30.17;;;15.48;;
36359;SDS011;22388;52.432;20.662;2023-03-04T07:28:13;39.03;;;17.20;;
36359;SDS011;22388;52.432;20.662;2023-03-04T07:30:39;34.22;;;16.70;;
36359;SDS011;22388;52.432;20.662;2023-03-04T07:33:04;35.20;;;15.07;;
36359;SDS011;22388;52.432;20.662;2023-03-04T07:35:30;27.70;;;15.50;;
36359;SDS011;22388;52.432;20.662;2023-03-04T07:37:55;30.27;;;15.93;;
36359;SDS011;22388;52.432;20.662;2023-03-04T07:40:21;27.55;;;14.25;;
36359;SDS011;22388;52.432;20.662;2023-03-04T07:42:50;32.08;;;15.38;;
36359;SDS011;22388;52.432;20.662;2023-03-04T07:45:16;33.50;;;14.98;;
36359;SDS011;22388;52.432;20.662;2023-03-04T07:47:42;32.28;;;15.43;;
36359;SDS011;22388;52.432;20.662;2023-03-04T07:50:09;27.02;;;13.68;;
36359;SDS011;22388;52.432;20.662;2023-03-04T07:52:38;32.78;;;14.80;;
36359;SDS011;22388;52.432;20.662;2023-03-04T07:55:05;31.10;;;14.45;;
36359;SDS011;22388;52.432;20.662;2023-03-04T07:57:31;32.10;;;14.23;;
36359;SDS011;22388;52.432;20.662;2023-03-04T07:59:57;29.50;;;13.85;;
36359;SDS011;22388;52.432;20.662;2023-03-04T08:02:23;28.58;;;13.55;;
36359;SDS011;22388;52.432;20.662;2023-03-04T08:04:48;22.90;;;13.48;;
36359;SDS011;22388;52.432;20.662;2023-03-04T08:07:14;25.70;;;13.02;;
36359;SDS011;22388;52.432;20.662;2023-03-04T08:09:39;29.20;;;13.63;;
36359;SDS011;22388;52.432;20.662;2023-03-04T08:12:05;25.30;;;12.70;;
36359;SDS011;22388;52.432;20.662;2023-03-04T08:14:31;26.83;;;12.73;;
36359;SDS011;22388;52.432;20.662;2023-03-04T08:16:58;25.95;;;12.93;;
36359;SDS011;22388;52.432;20.662;2023-03-04T08:19:23;25.98;;;12.60;;
36359;SDS011;22388;52.432;20.662;2023-03-04T08:21:49;28.80;;;12.43;;
36359;SDS011;22388;52.432;20.662;2023-03-04T08:24:15;27.25;;;12.63;;
36359;SDS011;22388;52.432;20.662;2023-03-04T08:26:43;24.92;;;11.90;;
36359;SDS011;22388;52.432;20.662;2023-03-04T08:29:11;24.35;;;12.43;;
36359;SDS011;22388;52.432;20.662;2023-03-04T08:31:38;25.95;;;12.68;;
36359;SDS011;22388;52.432;20.662;2023-03-04T08:34:04;29.20;;;12.82;;
36359;SDS011;22388;52.432;20.662;2023-03-04T08:36:31;28.65;;;11.93;;
36359;SDS011;22388;52.432;20.662;2023-03-04T08:38:57;26.58;;;12.18;;
36359;SDS011;22388;52.432;20.662;2023-03-04T08:41:22;32.10;;;11.75;;
36359;SDS011;22388;52.432;20.662;2023-03-04T08:43:50;26.23;;;10.60;;
36359;SDS011;22388;52.432;20.662;2023-03-04T08:46:15;25.63;;;11.38;;
36359;SDS011;22388;52.432;20.662;2023-03-04T08:48:41;27.33;;;11.77;;
36359;SDS011;22388;52.432;20.662;2023-03-04T08:51:08;26.23;;;10.82;;
36359;SDS011;22388;52.432;20.662;2023-03-04T08:53:34;23.95;;;11.10;;
36359;SDS011;22388;52.432;20.662;2023-03-04T08:56:00;27.15;;;11.65;;
36359;SDS011;22388;52.432;20.662;2023-03-04T08:58:25;26.73;;;11.05;;
36359;SDS011;22388;52.432;20.662;2023-03-04T09:00:51;27.02;;;11.40;;
36359;SDS011;22388;52.432;20.662;2023-03-04T09:03:17;25.35;;;11.15;;
36359;SDS011;22388;52.432;20.662;2023-03-04T09:05:44;27.50;;;10.65;;
36359;SDS011;22388;52.432;20.662;2023-03-04T09:08:11;26.27;;;11.07;;
36359;SDS011;22388;52.432;20.662;2023-03-04T09:10:37;24.45;;;11.05;;
36359;SDS011;22388;52.432;20.662;2023-03-04T09:13:02;26.58;;;12.00;;
36359;SDS011;22388;52.432;20.662;2023-03-04T09:15:28;25.08;;;11.98;;
36359;SDS011;22388;52.432;20.662;2023-03-04T09:17:53;25.02;;;12.25;;
36359;SDS011;22388;52.432;20.662;2023-03-04T09:20:19;30.15;;;13.73;;
36359;SDS011;22388;52.432;20.662;2023-03-04T09:22:45;29.15;;;11.73;;
36359;SDS011;22388;52.432;20.662;2023-03-04T09:25:12;31.13;;;12.02;;
36359;SDS011;22388;52.432;20.662;2023-03-04T09:27:39;28.60;;;11.60;;
36359;SDS011;22388;52.432;20.662;2023-03-04T09:30:05;29.08;;;11.98;;
36359;SDS011;22388;52.432;20.662;2023-03-04T09:32:32;24.98;;;11.88;;
36359;SDS011;22388;52.432;20.662;2023-03-04T09:34:57;26.15;;;11.82;;
36359;SDS011;22388;52.432;20.662;2023-03-04T09:37:23;27.05;;;12.05;;
36359;SDS011;22388;52.432;20.662;2023-03-04T09:39:48;26.25;;;12.50;;
36359;SDS011;22388;52.432;20.662;2023-03-04T09:42:19;26.00;;;12.10;;
36359;SDS011;22388;52.432;20.662;2023-03-04T09:44:49;23.63;;;11.48;;
36359;SDS011;22388;52.432;20.662;2023-03-04T09:47:16;27.80;;;12.25;;
36359;SDS011;22388;52.432;20.662;2023-03-04T09:49:48;30.15;;;12.75;;
36359;SDS011;22388;52.432;20.662;2023-03-04T09:52:41;29.30;;;12.05;;
36359;SDS011;22388;52.432;20.662;2023-03-04T09:57:56;29.23;;;13.18;;
36359;SDS011;22388;52.432;20.662;2023-03-04T10:00:45;28.75;;;12.88;;
36359;SDS011;22388;52.432;20.662;2023-03-04T10:03:18;26.85;;;12.60;;
36359;SDS011;22388;52.432;20.662;2023-03-04T10:16:39;34.00;;;13.95;;
36359;SDS011;22388;52.432;20.662;2023-03-04T10:22:16;34.38;;;14.70;;
36359;SDS011;22388;52.432;20.662;2023-03-04T10:24:44;30.45;;;13.07;;
36359;SDS011;22388;52.432;20.662;2023-03-04T10:27:12;33.00;;;14.32;;
36359;SDS011;22388;52.432;20.662;2023-03-04T10:29:40;34.90;;;14.45;;
36359;SDS011;22388;52.432;20.662;2023-03-04T10:32:09;37.78;;;14.57;;
36359;SDS011;22388;52.432;20.662;2023-03-04T10:34:37;30.27;;;14.63;;
36359;SDS011;22388;52.432;20.662;2023-03-04T10:37:06;37.22;;;14.95;;
36359;SDS011;22388;52.432;20.662;2023-03-04T10:39:43;36.03;;;15.25;;
36359;SDS011;22388;52.432;20.662;2023-03-04T10:44:40;34.80;;;14.95;;
36359;SDS011;22388;52.432;20.662;2023-03-04T10:47:10;35.42;;;15.23;;
36359;SDS011;22388;52.432;20.662;2023-03-04T10:49:51;30.50;;;14.57;;
36359;SDS011;22388;52.432;20.662;2023-03-04T10:52:22;34.08;;;14.93;;
36359;SDS011;22388;52.432;20.662;2023-03-04T10:55:03;37.80;;;15.80;;
36359;SDS011;22388;52.432;20.662;2023-03-04T10:57:37;38.80;;;15.80;;
36359;SDS011;22388;52.432;20.662;2023-03-04T11:02:43;37.42;;;16.15;;
36359;SDS011;22388;52.432;20.662;2023-03-04T11:05:22;35.47;;;16.85;;
36359;SDS011;22388;52.432;20.662;2023-03-04T11:07:57;38.05;;;16.40;;
36359;SDS011;22388;52.432;20.662;2023-03-04T11:13:18;33.40;;;15.25;;
36359;SDS011;22388;52.432;20.662;2023-03-04T11:18:54;37.40;;;16.00;;
36359;SDS011;22388;52.432;20.662;2023-03-04T11:21:25;39.20;;;17.17;;
36359;SDS011;22388;52.432;20.662;2023-03-04T11:31:49;42.60;;;18.65;;
36359;SDS011;22388;52.432;20.662;2023-03-04T11:40:07;48.42;;;20.00;;
36359;SDS011;22388;52.432;20.662;2023-03-04T11:42:23;41.65;;;18.17;;
36359;SDS011;22388;52.432;20.662;2023-03-04T11:45:13;41.95;;;18.60;;
36359;SDS011;22388;52.432;20.662;2023-03-04T11:47:43;44.35;;;18.98;;
36359;SDS011;22388;52.432;20.662;2023-03-04T11:58:49;38.13;;;18.02;;
36359;SDS011;22388;52.432;20.662;2023-03-04T12:04:16;30.70;;;18.08;;
36359;SDS011;22388;52.432;20.662;2023-03-04T12:06:53;36.00;;;17.48;;
36359;SDS011;22388;52.432;20.662;2023-03-04T12:09:36;34.10;;;18.85;;
36359;SDS011;22388;52.432;20.662;2023-03-04T12:12:11;31.38;;;18.63;;
36359;SDS011;22388;52.432;20.662;2023-03-04T12:28:11;31.30;;;16.42;;
36359;SDS011;22388;52.432;20.662;2023-03-04T12:34:27;24.67;;;14.07;;
36359;SDS011;22388;52.432;20.662;2023-03-04T12:41:38;26.15;;;13.75;;
36359;SDS011;22388;52.432;20.662;2023-03-04T12:44:15;28.25;;;13.10;;
36359;SDS011;22388;52.432;20.662;2023-03-04T12:49:44;20.33;;;9.82;;
36359;SDS011;22388;52.432;20.662;2023-03-04T12:52:20;19.98;;;9.65;;
36359;SDS011;22388;52.432;20.662;2023-03-04T12:54:50;17.02;;;9.07;;
36359;SDS011;22388;52.432;20.662;2023-03-04T12:57:19;18.92;;;9.27;;
36359;SDS011;22388;52.432;20.662;2023-03-04T13:05:21;19.25;;;9.25;;
36359;SDS011;22388;52.432;20.662;2023-03-04T13:10:31;6.93;;;3.92;;
36359;SDS011;22388;52.432;20.662;2023-03-04T13:12:58;6.32;;;2.60;;
36359;SDS011;22388;52.432;20.662;2023-03-04T13:20:34;14.05;;;4.68;;
36359;SDS011;22388;52.432;20.662;2023-03-04T13:43:43;15.38;;;3.85;;
36359;SDS011;22388;52.432;20.662;2023-03-04T13:51:15;11.02;;;3.38;;
36359;SDS011;22388;52.432;20.662;2023-03-04T13:53:51;13.77;;;4.22;;
36359;SDS011;22388;52.432;20.662;2023-03-04T14:01:33;13.73;;;4.03;;
36359;SDS011;22388;52.432;20.662;2023-03-04T14:04:18;12.60;;;3.70;;
36359;SDS011;22388;52.432;20.662;2023-03-04T14:06:46;12.80;;;4.28;;
36359;SDS011;22388;52.432;20.662;2023-03-04T14:09:13;13.63;;;4.35;;
36359;SDS011;22388;52.432;20.662;2023-03-04T14:11:40;11.65;;;3.83;;
36359;SDS011;22388;52.432;20.662;2023-03-04T14:14:09;9.43;;;3.70;;
36359;SDS011;22388;52.432;20.662;2023-03-04T14:16:38;9.65;;;3.50;;
36359;SDS011;22388;52.432;20.662;2023-03-04T14:19:05;9.68;;;3.28;;
36359;SDS011;22388;52.432;20.662;2023-03-04T14:21:36;7.75;;;2.75;;
36359;SDS011;22388;52.432;20.662;2023-03-04T14:24:12;7.10;;;2.40;;
36359;SDS011;22388;52.432;20.662;2023-03-04T14:26:39;4.72;;;1.80;;
36359;SDS011;22388;52.432;20.662;2023-03-04T14:29:18;6.15;;;1.70;;
36359;SDS011;22388;52.432;20.662;2023-03-04T14:31:48;5.45;;;1.58;;
36359;SDS011;22388;52.432;20.662;2023-03-04T14:34:34;4.78;;;1.70;;
36359;SDS011;22388;52.432;20.662;2023-03-04T14:37:02;7.10;;;2.03;;
36359;SDS011;22388;52.432;20.662;2023-03-04T14:39:30;5.93;;;2.00;;
36359;SDS011;22388;52.432;20.662;2023-03-04T14:41:58;8.07;;;1.88;;
36359;SDS011;22388;52.432;20.662;2023-03-04T14:47:09;8.05;;;1.80;;
36359;SDS011;22388;52.432;20.662;2023-03-04T14:49:37;4.40;;;1.80;;
36359;SDS011;22388;52.432;20.662;2023-03-04T14:52:04;5.03;;;1.90;;
36359;SDS011;22388;52.432;20.662;2023-03-04T14:56:58;9.15;;;1.90;;
36359;SDS011;22388;52.432;20.662;2023-03-04T14:59:28;3.95;;;1.70;;
36359;SDS011;22388;52.432;20.662;2023-03-04T15:05:09;5.32;;;1.25;;
36359;SDS011;22388;52.432;20.662;2023-03-04T15:07:48;2.90;;;1.10;;
36359;SDS011;22388;52.432;20.662;2023-03-04T15:10:18;1.70;;;1.00;;
36359;SDS011;22388;52.432;20.662;2023-03-04T15:12:49;2.67;;;1.00;;
36359;SDS011;22388;52.432;20.662;2023-03-04T15:18:11;2.92;;;1.25;;
36359;SDS011;22388;52.432;20.662;2023-03-04T15:20:51;3.90;;;1.30;;
36359;SDS011;22388;52.432;20.662;2023-03-04T15:23:18;2.67;;;1.10;;
36359;SDS011;22388;52.432;20.662;2023-03-04T15:25:43;4.30;;;1.52;;
36359;SDS011;22388;52.432;20.662;2023-03-04T15:28:18;5.50;;;1.50;;
36359;SDS011;22388;52.432;20.662;2023-03-04T15:30:44;3.75;;;1.50;;
36359;SDS011;22388;52.432;20.662;2023-03-04T15:33:10;3.95;;;1.58;;
36359;SDS011;22388;52.432;20.662;2023-03-04T15:35:37;5.03;;;1.45;;
36359;SDS011;22388;52.432;20.662;2023-03-04T15:38:04;4.45;;;1.42;;
36359;SDS011;22388;52.432;20.662;2023-03-04T15:42:58;3.63;;;1.20;;
36359;SDS011;22388;52.432;20.662;2023-03-04T15:45:26;5.40;;;1.70;;
36359;SDS011;22388;52.432;20.662;2023-03-04T15:48:02;5.40;;;1.50;;
36359;SDS011;22388;52.432;20.662;2023-03-04T15:50:32;8.40;;;1.80;;
36359;SDS011;22388;52.432;20.662;2023-03-04T15:53:00;4.10;;;1.45;;
36359;SDS011;22388;52.432;20.662;2023-03-04T15:55:27;4.05;;;1.25;;
36359;SDS011;22388;52.432;20.662;2023-03-04T15:57:54;5.25;;;1.50;;
36359;SDS011;22388;52.432;20.662;2023-03-04T16:00:21;3.13;;;1.08;;
36359;SDS011;22388;52.432;20.662;2023-03-04T16:02:47;3.00;;;1.08;;
36359;SDS011;22388;52.432;20.662;2023-03-04T16:05:12;7.30;;;1.05;;
36359;SDS011;22388;52.432;20.662;2023-03-04T16:07:40;5.65;;;1.00;;
36359;SDS011;22388;52.432;20.662;2023-03-04T16:10:12;3.40;;;1.20;;
36359;SDS011;22388;52.432;20.662;2023-03-04T16:12:57;6.63;;;2.33;;
36359;SDS011;22388;52.432;20.662;2023-03-04T16:15:24;4.55;;;1.30;;
36359;SDS011;22388;52.432;20.662;2023-03-04T16:17:52;5.90;;;1.27;;
36359;SDS011;22388;52.432;20.662;2023-03-04T16:20:19;4.40;;;1.30;;
36359;SDS011;22388;52.432;20.662;2023-03-04T16:22:47;5.00;;;1.02;;
36359;SDS011;22388;52.432;20.662;2023-03-04T16:25:15;2.20;;;0.90;;
36359;SDS011;22388;52.432;20.662;2023-03-04T16:27:41;5.05;;;1.50;;
36359;SDS011;22388;52.432;20.662;2023-03-04T16:30:08;4.78;;;1.33;;
36359;SDS011;22388;52.432;20.662;2023-03-04T16:32:41;9.43;;;1.60;;
36359;SDS011;22388;52.432;20.662;2023-03-04T16:35:07;3.95;;;1.30;;